createdAt,value
2019-03-25T00:00:42.249Z,2.47
2019-03-25T00:05:49.626Z,2.53
2019-03-25T00:10:55.385Z,3.37
2019-03-25T00:16:01.304Z,2.73
2019-03-25T00:21:07.293Z,2.90
2019-03-25T00:26:13.301Z,2.63
2019-03-25T00:31:19.229Z,2.47
2019-03-25T00:36:25.147Z,2.10
2019-03-25T00:41:31.016Z,2.50
2019-03-25T00:46:36.892Z,2.60
2019-03-25T00:51:42.764Z,2.60
2019-03-25T00:56:48.742Z,3.30
2019-03-25T01:01:54.670Z,2.27
2019-03-25T01:07:00.486Z,2.97
2019-03-25T01:12:06.442Z,2.80
2019-03-25T01:17:12.391Z,2.67
2019-03-25T01:22:18.320Z,2.90
2019-03-25T01:27:24.069Z,3.00
2019-03-25T01:32:30.046Z,2.93
2019-03-25T01:37:35.909Z,3.77
2019-03-25T01:42:41.890Z,2.53
2019-03-25T01:47:47.760Z,2.10
2019-03-25T01:52:53.628Z,2.60
2019-03-25T01:57:59.500Z,2.47
2019-03-25T02:03:05.368Z,2.90
2019-03-25T02:08:11.709Z,3.50
2019-03-25T02:13:17.560Z,3.27
2019-03-25T02:18:23.455Z,2.67
2019-03-25T02:23:29.363Z,2.43
2019-03-25T02:28:35.133Z,2.77
2019-03-25T02:33:41.013Z,4.50
2019-03-25T02:38:46.941Z,3.00
2019-03-25T02:43:52.807Z,3.20
2019-03-25T02:48:58.726Z,3.00
2019-03-25T02:54:04.902Z,3.27
2019-03-25T02:59:10.771Z,3.43
2019-03-25T03:04:16.635Z,3.27
2019-03-25T03:09:22.505Z,3.60
2019-03-25T03:14:28.391Z,2.53
2019-03-25T03:19:34.360Z,3.50
2019-03-25T03:24:40.188Z,3.60
2019-03-25T03:29:47.135Z,3.13
2019-03-25T03:34:53.053Z,3.10
2019-03-25T03:39:59.282Z,4.80
2019-03-25T03:45:06.487Z,3.83
2019-03-25T03:50:15.249Z,3.30
2019-03-25T03:55:21.024Z,3.30
2019-03-25T04:00:31.477Z,4.10
2019-03-25T04:05:37.239Z,4.30
2019-03-25T04:10:45.311Z,3.77
2019-03-25T04:15:51.135Z,3.97
2019-03-25T04:20:57.006Z,5.23
2019-03-25T04:26:02.872Z,4.73
2019-03-25T04:31:08.842Z,3.37
2019-03-25T04:36:14.917Z,3.80
2019-03-25T04:41:20.938Z,3.83
2019-03-25T04:46:26.764Z,4.47
2019-03-25T04:51:32.631Z,4.20
2019-03-25T04:56:40.121Z,4.37
2019-03-25T05:01:47.036Z,3.90
2019-03-25T05:06:52.917Z,4.20
2019-03-25T05:11:58.695Z,5.33
2019-03-25T05:17:04.550Z,4.73
2019-03-25T05:22:11.180Z,3.30
2019-03-25T05:27:17.118Z,3.90
2019-03-25T05:32:22.989Z,3.97
2019-03-25T05:37:28.848Z,3.87
2019-03-25T05:42:34.626Z,3.87
2019-03-25T05:47:40.397Z,5.27
2019-03-25T05:52:46.183Z,4.60
2019-03-25T05:57:51.929Z,3.63
2019-03-25T06:02:57.798Z,4.13
2019-03-25T06:08:03.571Z,3.10
2019-03-25T06:13:09.441Z,4.47
2019-03-25T06:18:15.204Z,4.37
2019-03-25T06:23:20.983Z,4.90
2019-03-25T06:28:26.746Z,4.93
2019-03-25T06:33:32.633Z,3.77
2019-03-25T06:38:38.488Z,3.90
2019-03-25T06:43:44.289Z,5.27
2019-03-25T06:48:50.430Z,7.53
2019-03-25T06:53:56.321Z,5.57
2019-03-25T06:59:02.083Z,6.07
2019-03-25T07:04:07.946Z,4.70
2019-03-25T07:09:13.923Z,4.90
2019-03-25T07:14:19.996Z,5.50
2019-03-25T07:19:25.771Z,5.17
2019-03-25T07:24:32.662Z,4.93
2019-03-25T07:29:38.433Z,6.50
2019-03-25T07:34:44.197Z,5.77
2019-03-25T07:39:50.165Z,5.47
2019-03-25T07:44:56.057Z,6.45
2019-03-25T07:50:02.061Z,6.23
2019-03-25T07:55:08.248Z,5.80
2019-03-25T08:00:15.171Z,6.50
2019-03-25T08:05:20.943Z,6.37
2019-03-25T08:10:34.278Z,5.67
2019-03-25T08:15:40.198Z,6.70
2019-03-25T08:20:46.094Z,6.60
2019-03-25T08:25:52.937Z,6.70
2019-03-25T08:30:58.712Z,7.40
2019-03-25T08:36:04.629Z,6.80
2019-03-25T08:41:10.555Z,6.70
2019-03-25T08:46:16.847Z,7.07
2019-03-25T08:51:22.604Z,7.87
2019-03-25T08:56:28.397Z,6.87
2019-03-25T09:01:34.389Z,7.83
2019-03-25T09:06:40.334Z,8.30
2019-03-25T09:11:46.210Z,7.60
2019-03-25T09:16:52.066Z,6.90
2019-03-25T09:21:58.058Z,6.43
2019-03-25T09:27:04.038Z,6.47
2019-03-25T09:32:09.815Z,5.87
2019-03-25T09:37:15.764Z,5.17
2019-03-25T09:42:21.755Z,4.63
2019-03-25T09:47:28.682Z,5.17
2019-03-25T09:52:38.724Z,4.20
2019-03-25T09:57:42.031Z,5.67
2019-03-25T10:02:47.982Z,7.53
2019-03-25T10:07:53.844Z,7.30
2019-03-25T10:12:59.698Z,6.10
2019-03-25T10:18:05.613Z,8.27
2019-03-25T10:23:11.477Z,10.60
2019-03-25T10:28:17.259Z,5.17
2019-03-25T10:33:23.119Z,3.00
2019-03-25T10:38:28.871Z,1.70
2019-03-25T10:43:34.751Z,6.97
2019-03-25T10:48:40.612Z,6.50
2019-03-25T10:53:46.512Z,3.87
2019-03-25T10:58:58.057Z,1.27
2019-03-25T11:03:59.976Z,2.30
2019-03-25T11:09:07.475Z,1.40
2019-03-25T11:14:13.253Z,2.23
2019-03-25T11:19:19.223Z,1.57
2019-03-25T11:24:25.089Z,2.27
2019-03-25T11:29:30.865Z,2.10
2019-03-25T11:34:37.648Z,1.40
2019-03-25T11:39:43.424Z,1.50
2019-03-25T11:44:49.188Z,1.87
2019-03-25T11:49:55.064Z,3.73
2019-03-25T11:55:00.830Z,2.67
2019-03-25T12:00:08.752Z,1.70
2019-03-25T12:05:14.521Z,1.77
2019-03-25T12:10:20.401Z,1.80
2019-03-25T12:15:26.185Z,2.00
2019-03-25T12:20:33.159Z,2.53
2019-03-25T12:25:38.925Z,2.47
2019-03-25T12:30:45.931Z,2.10
2019-03-25T12:35:51.890Z,2.60
2019-03-25T12:40:57.764Z,3.00
2019-03-25T12:46:03.648Z,3.80
2019-03-25T12:51:09.404Z,3.30
2019-03-25T12:56:15.285Z,2.90
2019-03-25T13:01:21.043Z,3.23
2019-03-25T13:06:26.820Z,3.80
2019-03-25T13:11:33.737Z,3.43
2019-03-25T13:16:39.791Z,4.10
2019-03-25T13:21:45.869Z,3.63
2019-03-25T13:26:51.731Z,2.80
2019-03-25T13:31:57.604Z,3.47
2019-03-25T13:37:03.690Z,3.47
2019-03-25T13:42:10.580Z,4.10
2019-03-25T13:47:16.467Z,3.53
2019-03-25T13:52:22.470Z,3.83
2019-03-25T13:57:28.568Z,6.17
2019-03-25T14:02:34.397Z,3.00
2019-03-25T14:07:40.345Z,3.93
2019-03-25T14:12:47.343Z,7.10
2019-03-25T14:17:53.115Z,2.93
2019-03-25T14:22:58.982Z,2.67
2019-03-25T14:28:04.849Z,3.13
2019-03-25T14:33:10.618Z,3.17
2019-03-25T14:38:16.537Z,3.20
2019-03-25T14:43:22.500Z,2.00
2019-03-25T14:48:28.340Z,2.13
2019-03-25T14:53:44.726Z,3.43
2019-03-25T14:58:41.922Z,5.07
2019-03-25T15:03:47.698Z,4.07
2019-03-25T15:08:53.457Z,4.60
2019-03-25T15:13:59.329Z,4.72
2019-03-25T15:19:05.201Z,5.73
2019-03-25T15:24:10.965Z,5.67
2019-03-25T15:29:16.902Z,7.07
2019-03-25T15:34:23.015Z,6.73
2019-03-25T15:39:28.932Z,7.83
2019-03-25T15:44:34.766Z,4.00
2019-03-25T15:49:40.525Z,5.27
2019-03-25T15:54:46.297Z,6.43
2019-03-25T15:59:52.063Z,6.13
2019-03-25T16:04:58.046Z,5.40
2019-03-25T16:10:04.931Z,4.47
2019-03-25T16:15:11.752Z,2.63
2019-03-25T16:20:17.703Z,2.77
2019-03-25T16:25:27.604Z,2.90
2019-03-25T16:30:33.434Z,3.93
2019-03-25T16:35:39.245Z,4.50
2019-03-25T16:40:45.089Z,7.43
2019-03-25T16:45:51.050Z,7.70
2019-03-25T16:50:56.933Z,8.50
2019-03-25T16:56:02.901Z,12.57
2019-03-25T17:01:10.443Z,16.20
2019-03-25T17:06:16.503Z,15.47
2019-03-25T17:11:22.360Z,12.77
2019-03-25T17:16:28.532Z,12.73
2019-03-25T17:21:34.503Z,11.67
2019-03-25T17:26:42.539Z,9.07
2019-03-25T17:31:48.437Z,2.60
2019-03-25T17:36:54.261Z,4.10
2019-03-25T17:42:00.143Z,4.13
2019-03-25T17:47:06.052Z,8.27
2019-03-25T17:52:11.983Z,15.50
2019-03-25T17:57:17.881Z,15.77
2019-03-25T18:02:23.931Z,11.27
2019-03-25T18:07:29.803Z,8.93
2019-03-25T18:12:39.121Z,10.33
2019-03-25T18:17:44.290Z,9.10
2019-03-25T18:22:50.080Z,8.07
2019-03-25T18:27:56.051Z,8.23
2019-03-25T18:33:01.932Z,6.83
2019-03-25T18:38:08.778Z,5.50
2019-03-25T18:43:14.584Z,2.97
2019-03-25T18:48:20.352Z,3.07
2019-03-25T18:53:27.149Z,2.87
2019-03-25T18:58:33.354Z,2.80
2019-03-25T19:03:39.168Z,2.83
2019-03-25T19:08:44.983Z,5.37
2019-03-25T19:13:51.825Z,5.47
2019-03-25T19:18:57.741Z,4.70
2019-03-25T19:24:03.638Z,6.70
2019-03-25T19:29:09.387Z,5.53
2019-03-25T19:34:16.176Z,6.03
2019-03-25T19:39:22.083Z,6.43
2019-03-25T19:44:28.027Z,5.57
2019-03-25T19:49:35.521Z,6.30
2019-03-25T19:54:41.292Z,7.50
2019-03-25T19:59:47.450Z,8.30
2019-03-25T20:04:54.122Z,10.27
2019-03-25T20:10:02.204Z,11.63
2019-03-25T20:15:08.496Z,13.40
2019-03-25T20:20:14.545Z,17.93
2019-03-25T20:25:20.517Z,22.43
2019-03-25T20:30:26.447Z,21.10
2019-03-25T20:35:32.336Z,22.33
2019-03-25T20:40:38.237Z,24.17
2019-03-25T20:45:46.526Z,19.07
2019-03-25T20:50:52.583Z,15.23
2019-03-25T20:55:58.435Z,11.27
2019-03-25T21:01:05.199Z,10.20
2019-03-25T21:06:10.970Z,10.30
2019-03-25T21:11:16.902Z,11.67
2019-03-25T21:16:22.865Z,11.17
2019-03-25T21:21:28.790Z,10.90
2019-03-25T21:26:34.883Z,12.20
2019-03-25T21:31:40.813Z,10.70
2019-03-25T21:36:46.761Z,12.33
2019-03-25T21:41:54.651Z,11.00
2019-03-25T21:47:00.690Z,11.87
2019-03-25T21:52:06.666Z,11.97
2019-03-25T21:57:12.680Z,12.50
2019-03-25T22:02:19.648Z,10.97
2019-03-25T22:07:25.923Z,12.30
2019-03-25T22:12:31.911Z,13.47
2019-03-25T22:17:38.499Z,13.40
2019-03-25T22:22:44.299Z,17.03
2019-03-25T22:27:50.249Z,15.80
2019-03-25T22:32:57.289Z,13.37
2019-03-25T22:38:03.212Z,12.27
2019-03-25T22:43:08.979Z,12.33
2019-03-25T22:48:14.954Z,17.63
2019-03-25T22:53:20.936Z,23.47
2019-03-25T22:58:26.901Z,25.00
2019-03-25T23:03:38.985Z,26.60
2019-03-25T23:08:40.388Z,24.97
2019-03-25T23:13:46.385Z,23.73
2019-03-25T23:18:52.463Z,29.20
2019-03-25T23:24:00.775Z,29.23
2019-03-25T23:29:06.821Z,31.73
2019-03-25T23:34:12.696Z,32.87
2019-03-25T23:39:18.566Z,24.27
2019-03-25T23:44:25.380Z,23.23
2019-03-25T23:49:31.236Z,19.43
2019-03-25T23:54:37.221Z,16.13
2019-03-25T23:59:43.007Z,16.77
